createdAt,value
2018-02-03T00:00:53.796Z,45.72
2018-02-03T00:03:20.515Z,41.58
2018-02-03T00:05:47.197Z,68.55
2018-02-03T00:08:13.848Z,49.83
2018-02-03T00:10:40.515Z,56.75
2018-02-03T00:13:07.971Z,52.25
2018-02-03T00:15:34.668Z,39.72
2018-02-03T00:18:01.393Z,51.85
2018-02-03T00:20:28.061Z,36.35
2018-02-03T00:22:54.751Z,34.10
2018-02-03T00:25:22.147Z,30.35
2018-02-03T00:27:48.928Z,39.90
2018-02-03T00:30:15.616Z,31.45
2018-02-03T00:32:42.302Z,50.45
2018-02-03T00:35:08.994Z,30.75
2018-02-03T00:37:36.717Z,28.77
2018-02-03T00:40:03.399Z,31.00
2018-02-03T00:42:30.830Z,26.65
2018-02-03T00:44:57.546Z,28.12
2018-02-03T00:47:24.241Z,24.40
2018-02-03T00:49:51.634Z,26.10
2018-02-03T00:52:18.393Z,27.55
2018-02-03T00:54:45.101Z,26.00
2018-02-03T00:57:12.516Z,28.23
2018-02-03T00:59:39.173Z,22.85
2018-02-03T01:02:06.703Z,34.45
2018-02-03T01:04:33.374Z,24.80
2018-02-03T01:07:00.814Z,24.75
2018-02-03T01:09:27.501Z,26.70
2018-02-03T01:11:54.918Z,20.88
2018-02-03T01:14:21.622Z,22.58
2018-02-03T01:16:48.351Z,24.15
2018-02-03T01:19:15.819Z,25.83
2018-02-03T01:21:43.241Z,24.35
2018-02-03T01:24:17.025Z,30.37
2018-02-03T01:26:43.695Z,28.60
2018-02-03T01:29:10.336Z,25.15
2018-02-03T01:31:37.028Z,25.90
2018-02-03T01:34:03.748Z,25.50
2018-02-03T01:36:30.520Z,24.15
2018-02-03T01:38:57.427Z,24.10
2018-02-03T01:41:24.133Z,22.50
2018-02-03T01:43:50.830Z,23.50
2018-02-03T01:46:18.297Z,25.73
2018-02-03T01:48:45.721Z,24.52
2018-02-03T01:51:12.396Z,23.40
2018-02-03T01:53:39.807Z,23.92
2018-02-03T01:56:06.504Z,25.08
2018-02-03T01:58:33.922Z,25.35
2018-02-03T02:01:00.602Z,25.35
2018-02-03T02:03:28.030Z,24.12
2018-02-03T02:05:54.730Z,24.83
2018-02-03T02:08:21.492Z,24.15
2018-02-03T02:10:48.176Z,26.52
2018-02-03T02:13:14.856Z,24.42
2018-02-03T02:15:41.545Z,24.70
2018-02-03T02:18:08.236Z,27.13
2018-02-03T02:20:34.932Z,24.85
2018-02-03T02:23:01.645Z,26.87
2018-02-03T02:25:28.346Z,28.20
2018-02-03T02:27:55.783Z,23.85
2018-02-03T02:30:23.115Z,26.08
2018-02-03T02:32:49.792Z,23.90
2018-02-03T02:35:16.464Z,28.48
2018-02-03T02:37:43.892Z,25.85
2018-02-03T02:40:12.073Z,26.08
2018-02-03T02:42:38.751Z,26.65
2018-02-03T02:45:05.435Z,26.30
2018-02-03T02:47:32.081Z,23.90
2018-02-03T02:49:58.743Z,23.25
2018-02-03T02:52:25.454Z,26.70
2018-02-03T02:54:52.128Z,26.80
2018-02-03T02:57:18.817Z,29.02
2018-02-03T02:59:45.495Z,26.15
2018-02-03T03:02:12.176Z,29.45
2018-02-03T03:04:39.630Z,30.37
2018-02-03T03:07:06.302Z,34.88
2018-02-03T03:09:32.945Z,32.65
2018-02-03T03:11:59.714Z,30.35
2018-02-03T03:14:26.376Z,33.13
2018-02-03T03:16:53.071Z,33.33
2018-02-03T03:19:19.805Z,32.30
2018-02-03T03:21:47.328Z,34.78
2018-02-03T03:24:14.016Z,31.23
2018-02-03T03:26:41.429Z,36.65
2018-02-03T03:29:08.120Z,35.88
2018-02-03T03:31:35.528Z,34.55
2018-02-03T03:34:02.222Z,35.45
2018-02-03T03:36:29.650Z,36.13
2018-02-03T03:39:04.190Z,34.03
2018-02-03T03:41:31.625Z,38.50
2018-02-03T03:43:58.283Z,33.35
2018-02-03T03:46:25.722Z,35.55
2018-02-03T03:48:52.408Z,34.20
2018-02-03T03:51:19.823Z,36.78
2018-02-03T03:53:46.500Z,36.42
2018-02-03T03:56:13.911Z,35.58
2018-02-03T03:58:40.561Z,35.05
2018-02-03T04:01:07.254Z,32.78
2018-02-03T04:03:34.671Z,35.70
2018-02-03T04:06:01.364Z,36.15
2018-02-03T04:08:28.849Z,33.10
2018-02-03T04:10:55.534Z,35.63
2018-02-03T04:13:22.957Z,36.75
2018-02-03T04:15:49.649Z,36.13
2018-02-03T04:18:16.338Z,33.95
2018-02-03T04:20:43.035Z,39.75
2018-02-03T04:23:09.719Z,35.60
2018-02-03T04:25:36.479Z,39.03
2018-02-03T04:28:03.157Z,40.65
2018-02-03T04:30:29.907Z,54.15
2018-02-03T04:32:56.565Z,49.75
2018-02-03T04:35:23.957Z,41.13
2018-02-03T04:37:50.642Z,38.92
2018-02-03T04:40:17.338Z,37.60
2018-02-03T04:42:44.022Z,38.45
2018-02-03T04:45:10.753Z,35.17
2018-02-03T04:47:37.422Z,46.22
2018-02-03T04:50:05.672Z,32.97
2018-02-03T04:52:32.329Z,33.90
2018-02-03T04:54:59.150Z,35.42
2018-02-03T04:57:25.822Z,33.35
2018-02-03T04:59:52.501Z,34.75
2018-02-03T05:02:19.936Z,46.72
2018-02-03T05:04:46.645Z,34.72
2018-02-03T05:07:13.338Z,33.88
2018-02-03T05:09:40.782Z,34.15
2018-02-03T05:12:07.459Z,43.67
2018-02-03T05:14:34.141Z,32.97
2018-02-03T05:17:00.817Z,35.35
2018-02-03T05:19:27.533Z,33.13
2018-02-03T05:21:54.214Z,31.30
2018-02-03T05:24:21.636Z,36.80
2018-02-03T05:26:48.313Z,34.20
2018-02-03T05:29:15.048Z,38.22
2018-02-03T05:31:41.705Z,36.85
2018-02-03T05:34:09.119Z,36.13
2018-02-03T05:36:35.782Z,32.70
2018-02-03T05:39:03.422Z,37.10
2018-02-03T05:41:30.124Z,35.03
2018-02-03T05:43:57.588Z,38.22
2018-02-03T05:46:24.353Z,33.92
2018-02-03T05:48:51.089Z,37.67
2018-02-03T05:51:18.364Z,37.25
2018-02-03T05:53:45.044Z,34.15
2018-02-03T05:56:11.746Z,36.47
2018-02-03T05:58:38.418Z,35.22
2018-02-03T06:01:05.185Z,36.38
2018-02-03T06:03:33.351Z,40.12
2018-02-03T06:06:00.033Z,36.45
2018-02-03T06:08:26.708Z,38.53
2018-02-03T06:10:53.429Z,34.90
2018-02-03T06:13:20.746Z,33.95
2018-02-03T06:15:47.496Z,33.78
2018-02-03T06:18:14.185Z,32.83
2018-02-03T06:20:40.937Z,29.75
2018-02-03T06:23:08.116Z,26.45
2018-02-03T06:25:34.849Z,28.73
2018-02-03T06:28:01.498Z,29.35
2018-02-03T06:30:28.177Z,27.37
2018-02-03T06:32:55.602Z,25.98
2018-02-03T06:35:22.299Z,26.17
2018-02-03T06:37:48.966Z,23.25
2018-02-03T06:40:15.629Z,22.55
2018-02-03T06:42:42.309Z,22.83
2018-02-03T06:45:09.726Z,22.45
2018-02-03T06:47:36.419Z,26.12
2018-02-03T06:50:03.942Z,21.30
2018-02-03T06:52:30.597Z,21.90
2018-02-03T06:54:57.265Z,21.33
2018-02-03T06:57:24.662Z,19.25
2018-02-03T06:59:51.431Z,19.37
2018-02-03T07:02:18.066Z,18.70
2018-02-03T07:04:44.745Z,19.30
2018-02-03T07:07:12.185Z,20.27
2018-02-03T07:09:38.844Z,20.67
2018-02-03T07:12:06.332Z,17.48
2018-02-03T07:14:33.014Z,17.80
2018-02-03T07:16:59.727Z,18.40
2018-02-03T07:19:26.423Z,18.30
2018-02-03T07:21:53.169Z,17.27
2018-02-03T07:24:19.919Z,18.15
2018-02-03T07:26:46.617Z,16.60
2018-02-03T07:29:13.335Z,17.98
2018-02-03T07:31:40.016Z,16.83
2018-02-03T07:34:06.682Z,15.00
2018-02-03T07:36:33.352Z,17.12
2018-02-03T07:39:00.887Z,14.57
2018-02-03T07:41:27.595Z,15.05
2018-02-03T07:43:54.268Z,14.32
2018-02-03T07:46:20.958Z,13.23
2018-02-03T07:48:47.661Z,15.05
2018-02-03T07:51:14.466Z,16.65
2018-02-03T07:53:41.211Z,19.05
2018-02-03T07:56:07.898Z,19.48
2018-02-03T07:58:34.583Z,21.58
2018-02-03T08:01:01.287Z,22.08
2018-02-03T08:03:27.945Z,25.35
2018-02-03T08:05:55.374Z,24.40
2018-02-03T08:08:22.086Z,24.90
2018-02-03T08:10:48.752Z,24.30
2018-02-03T08:13:16.017Z,25.85
2018-02-03T08:15:42.714Z,26.87
2018-02-03T08:18:09.426Z,25.90
2018-02-03T08:20:37.010Z,25.35
2018-02-03T08:23:03.795Z,23.98
2018-02-03T08:25:30.526Z,21.90
2018-02-03T08:27:57.309Z,22.62
2018-02-03T08:30:23.992Z,21.58
2018-02-03T08:32:50.732Z,23.73
2018-02-03T08:35:17.477Z,23.02
2018-02-03T08:37:44.241Z,22.90
2018-02-03T08:40:11.609Z,22.87
2018-02-03T08:42:38.333Z,23.20
2018-02-03T08:45:05.096Z,23.95
2018-02-03T08:47:31.766Z,23.02
2018-02-03T08:49:58.456Z,24.83
2018-02-03T08:52:25.170Z,23.73
2018-02-03T08:54:51.897Z,25.20
2018-02-03T08:57:18.608Z,22.67
2018-02-03T08:59:45.309Z,24.98
2018-02-03T09:02:12.006Z,22.77
2018-02-03T09:04:38.681Z,24.55
2018-02-03T09:07:06.135Z,26.05
2018-02-03T09:09:32.830Z,23.60
2018-02-03T09:12:07.384Z,23.08
2018-02-03T09:14:34.084Z,22.73
2018-02-03T09:17:00.744Z,23.38
2018-02-03T09:19:27.507Z,22.70
2018-02-03T09:21:54.240Z,25.23
2018-02-03T09:24:20.954Z,23.62
2018-02-03T09:26:48.398Z,22.85
2018-02-03T09:29:15.103Z,25.42
2018-02-03T09:31:41.873Z,22.23
2018-02-03T09:34:08.605Z,21.73
2018-02-03T09:36:35.299Z,23.08
2018-02-03T09:39:05.145Z,20.77
2018-02-03T09:41:31.835Z,15.68
2018-02-03T09:43:58.516Z,15.75
2018-02-03T09:46:25.213Z,21.02
2018-02-03T09:48:51.938Z,14.27
2018-02-03T09:51:18.639Z,11.63
2018-02-03T09:53:45.366Z,22.27
2018-02-03T09:56:12.791Z,29.92
2018-02-03T09:58:39.533Z,31.80
2018-02-03T10:01:06.210Z,30.90
2018-02-03T10:03:33.634Z,30.10
2018-02-03T10:06:00.306Z,30.05
2018-02-03T10:08:27.736Z,30.75
2018-02-03T10:10:54.462Z,30.98
2018-02-03T10:13:21.152Z,36.50
2018-02-03T10:15:48.624Z,45.35
2018-02-03T10:18:16.058Z,32.65
2018-02-03T10:20:50.653Z,30.95
2018-02-03T10:23:17.370Z,31.80
2018-02-03T10:25:44.053Z,27.55
2018-02-03T10:28:10.790Z,31.10
2018-02-03T10:30:37.614Z,29.05
2018-02-03T10:33:04.376Z,29.17
2018-02-03T10:35:31.072Z,32.47
2018-02-03T10:37:58.525Z,31.08
2018-02-03T10:40:25.316Z,32.53
2018-02-03T10:42:52.069Z,31.27
2018-02-03T10:45:18.805Z,31.08
2018-02-03T10:47:45.479Z,30.95
2018-02-03T10:50:13.100Z,32.38
2018-02-03T10:52:40.986Z,26.98
2018-02-03T10:55:07.706Z,29.27
2018-02-03T10:57:34.421Z,30.60
2018-02-03T11:00:01.117Z,28.38
2018-02-03T11:02:27.990Z,31.30
2018-02-03T11:04:54.777Z,24.80
2018-02-03T11:07:23.205Z,27.17
2018-02-03T11:09:50.006Z,28.62
2018-02-03T11:12:17.444Z,25.25
2018-02-03T11:14:44.120Z,23.52
2018-02-03T11:17:10.902Z,22.70
2018-02-03T11:19:37.738Z,22.15
2018-02-03T11:22:04.650Z,20.48
2018-02-03T11:24:32.091Z,22.65
2018-02-03T11:26:58.798Z,21.33
2018-02-03T11:29:25.560Z,22.42
2018-02-03T11:31:52.335Z,21.95
2018-02-03T11:34:19.725Z,22.30
2018-02-03T11:36:46.587Z,24.90
2018-02-03T11:39:13.430Z,22.45
2018-02-03T11:41:41.654Z,21.48
2018-02-03T11:44:09.083Z,21.55
2018-02-03T11:46:35.971Z,22.95
2018-02-03T11:49:03.051Z,21.12
2018-02-03T11:51:29.757Z,20.25
2018-02-03T11:53:56.463Z,22.75
2018-02-03T11:56:23.166Z,18.85
2018-02-03T11:58:50.684Z,14.10
2018-02-03T12:01:19.103Z,16.33
2018-02-03T12:03:46.594Z,12.95
2018-02-03T12:06:13.575Z,9.32
2018-02-03T12:08:40.250Z,10.73
2018-02-03T12:11:06.999Z,10.63
2018-02-03T12:13:33.896Z,10.02
2018-02-03T12:16:00.585Z,10.27
2018-02-03T12:18:28.074Z,10.38
2018-02-03T12:20:54.793Z,11.02
2018-02-03T12:23:22.262Z,11.77
2018-02-03T12:25:49.731Z,12.02
2018-02-03T12:28:17.170Z,11.18
2018-02-03T12:30:43.904Z,12.20
2018-02-03T12:33:10.636Z,13.65
2018-02-03T12:35:37.343Z,13.70
2018-02-03T12:38:04.974Z,13.85
2018-02-03T12:40:31.716Z,14.93
2018-02-03T12:42:59.220Z,14.23
2018-02-03T12:45:25.939Z,13.77
2018-02-03T12:47:53.684Z,14.82
2018-02-03T12:50:20.375Z,14.95
2018-02-03T12:52:47.102Z,14.82
2018-02-03T12:55:13.935Z,14.63
2018-02-03T12:57:40.645Z,13.93
2018-02-03T13:00:07.341Z,13.18
2018-02-03T13:02:34.211Z,13.90
2018-02-03T13:05:00.970Z,13.00
2018-02-03T13:07:27.664Z,13.38
2018-02-03T13:09:54.367Z,12.45
2018-02-03T13:12:21.040Z,12.88
2018-02-03T13:14:49.543Z,9.63
2018-02-03T13:17:16.666Z,11.77
2018-02-03T13:19:44.314Z,11.12
2018-02-03T13:22:11.061Z,8.60
2018-02-03T13:24:37.823Z,9.88
2018-02-03T13:27:05.266Z,8.50
2018-02-03T13:29:31.964Z,9.88
2018-02-03T13:31:58.642Z,10.00
2018-02-03T13:34:25.410Z,8.25
2018-02-03T13:36:52.190Z,9.13
2018-02-03T13:39:18.943Z,8.15
2018-02-03T13:41:45.681Z,8.65
2018-02-03T13:44:12.384Z,9.65
2018-02-03T13:46:39.107Z,9.02
2018-02-03T13:49:05.815Z,7.25
2018-02-03T13:51:39.286Z,8.93
2018-02-03T13:54:06.746Z,9.27
2018-02-03T13:56:34.410Z,10.30
2018-02-03T13:59:01.121Z,9.77
2018-02-03T14:01:27.789Z,10.18
2018-02-03T14:03:54.677Z,10.50
2018-02-03T14:06:21.504Z,10.93
2018-02-03T14:08:48.958Z,10.38
2018-02-03T14:11:16.442Z,11.32
2018-02-03T14:13:43.163Z,11.30
2018-02-03T14:16:10.645Z,10.70
2018-02-03T14:18:37.638Z,10.82
2018-02-03T14:21:04.366Z,11.27
2018-02-03T14:23:31.064Z,11.43
2018-02-03T14:26:04.579Z,12.02
2018-02-03T14:28:33.111Z,10.82
2018-02-03T14:30:59.806Z,11.50
2018-02-03T14:33:27.259Z,11.38
2018-02-03T14:35:54.883Z,12.20
2018-02-03T14:38:21.538Z,12.20
2018-02-03T14:40:48.254Z,12.63
2018-02-03T14:43:15.037Z,13.20
2018-02-03T14:45:41.788Z,11.07
2018-02-03T14:48:08.607Z,12.55
2018-02-03T14:50:35.302Z,12.00
2018-02-03T14:53:02.086Z,12.35
2018-02-03T14:55:28.811Z,12.70
2018-02-03T14:57:55.490Z,12.63
2018-02-03T15:00:22.254Z,12.13
2018-02-03T15:02:49.034Z,12.57
2018-02-03T15:05:15.745Z,12.60
2018-02-03T15:07:42.523Z,12.82
2018-02-03T15:10:09.298Z,12.70
2018-02-03T15:12:36.000Z,12.57
2018-02-03T15:15:03.490Z,13.07
2018-02-03T15:17:30.163Z,13.60
2018-02-03T15:19:56.925Z,13.90
2018-02-03T15:22:24.435Z,14.52
2018-02-03T15:24:51.146Z,12.65
2018-02-03T15:27:18.651Z,12.52
2018-02-03T15:29:45.406Z,14.40
2018-02-03T15:32:12.140Z,13.98
2018-02-03T15:34:38.923Z,14.50
2018-02-03T15:37:05.662Z,14.43
2018-02-03T15:39:32.382Z,14.40
2018-02-03T15:41:59.080Z,15.10
2018-02-03T15:44:25.840Z,15.00
2018-02-03T15:46:52.627Z,15.60
2018-02-03T15:49:26.314Z,16.05
2018-02-03T15:51:52.995Z,14.20
2018-02-03T15:54:19.731Z,14.45
2018-02-03T15:56:46.447Z,15.95
2018-02-03T15:59:13.186Z,16.20
2018-02-03T16:01:39.961Z,17.30
2018-02-03T16:04:06.729Z,16.17
2018-02-03T16:06:34.239Z,17.15
2018-02-03T16:09:00.934Z,16.65
2018-02-03T16:11:28.446Z,18.25
2018-02-03T16:13:55.119Z,17.08
2018-02-03T16:16:21.939Z,16.70
2018-02-03T16:18:48.642Z,18.37
2018-02-03T16:21:16.090Z,17.83
2018-02-03T16:23:43.590Z,19.37
2018-02-03T16:26:10.288Z,20.83
2018-02-03T16:28:37.049Z,19.10
2018-02-03T16:31:04.581Z,21.35
2018-02-03T16:33:31.371Z,22.13
2018-02-03T16:35:58.075Z,19.83
2018-02-03T16:38:25.054Z,22.30
2018-02-03T16:40:52.629Z,22.98
2018-02-03T16:43:19.313Z,20.65
2018-02-03T16:45:46.699Z,21.75
2018-02-03T16:48:21.171Z,20.70
2018-02-03T16:50:47.831Z,21.10
2018-02-03T16:53:14.530Z,22.55
2018-02-03T16:55:44.548Z,22.65
2018-02-03T16:58:11.978Z,21.95
2018-02-03T17:00:38.671Z,22.75
2018-02-03T17:03:05.370Z,23.55
2018-02-03T17:05:32.156Z,26.00
2018-02-03T17:07:59.026Z,24.75
2018-02-03T17:10:25.876Z,23.95
2018-02-03T17:12:52.829Z,26.27
2018-02-03T17:15:19.729Z,26.87
2018-02-03T17:17:47.151Z,26.98
2018-02-03T17:20:13.855Z,25.65
2018-02-03T17:22:40.599Z,27.60
2018-02-03T17:25:07.342Z,26.75
2018-02-03T17:27:41.142Z,26.60
2018-02-03T17:30:08.589Z,28.77
2018-02-03T17:32:35.325Z,26.58
2018-02-03T17:35:02.801Z,29.73
2018-02-03T17:37:36.213Z,28.85
2018-02-03T17:40:03.732Z,29.27
2018-02-03T17:42:30.568Z,24.87
2018-02-03T17:45:03.311Z,28.98
2018-02-03T17:47:30.094Z,28.15
2018-02-03T17:49:56.829Z,28.00
2018-02-03T17:52:24.565Z,28.08
2018-02-03T17:54:51.280Z,27.10
2018-02-03T17:57:24.146Z,26.90
2018-02-03T17:59:50.880Z,27.37
2018-02-03T18:02:17.559Z,27.00
2018-02-03T18:04:45.049Z,28.95
2018-02-03T18:07:12.970Z,30.05
2018-02-03T18:09:39.664Z,31.10
2018-02-03T18:12:06.415Z,31.33
2018-02-03T18:14:33.185Z,31.48
2018-02-03T18:17:00.069Z,31.50
2018-02-03T18:19:26.785Z,29.10
2018-02-03T18:21:54.213Z,28.15
2018-02-03T18:24:22.319Z,27.42
2018-02-03T18:26:49.163Z,28.58
2018-02-03T18:29:16.005Z,31.17
2018-02-03T18:31:43.743Z,28.42
2018-02-03T18:34:11.782Z,31.33
2018-02-03T18:36:39.303Z,31.70
2018-02-03T18:39:06.066Z,27.25
2018-02-03T18:41:32.866Z,29.87
2018-02-03T18:43:59.687Z,30.08
2018-02-03T18:46:27.111Z,30.48
2018-02-03T18:48:53.947Z,28.40
2018-02-03T18:51:20.627Z,26.92
2018-02-03T18:53:47.326Z,28.95
2018-02-03T18:56:14.068Z,30.88
2018-02-03T18:58:40.778Z,31.80
2018-02-03T19:01:08.232Z,30.00
2018-02-03T19:03:35.694Z,30.60
2018-02-03T19:06:03.217Z,31.27
2018-02-03T19:08:30.005Z,31.12
2018-02-03T19:11:00.878Z,29.85
2018-02-03T19:13:27.579Z,31.25
2018-02-03T19:15:54.308Z,31.08
2018-02-03T19:18:21.001Z,28.83
2018-02-03T19:20:47.692Z,28.40
2018-02-03T19:23:14.443Z,30.48
2018-02-03T19:25:41.085Z,29.87
2018-02-03T19:28:07.867Z,27.13
2018-02-03T19:30:35.355Z,27.02
2018-02-03T19:33:02.034Z,27.83
2018-02-03T19:35:29.310Z,27.95
2018-02-03T19:37:56.822Z,29.23
2018-02-03T19:40:23.513Z,31.00
2018-02-03T19:42:50.990Z,28.30
2018-02-03T19:45:18.435Z,27.17
2018-02-03T19:47:46.049Z,24.30
2018-02-03T19:50:13.713Z,27.40
2018-02-03T19:52:40.442Z,24.70
2018-02-03T19:55:07.175Z,25.05
2018-02-03T19:57:33.958Z,25.10
2018-02-03T20:00:00.649Z,27.60
2018-02-03T20:02:28.104Z,28.00
2018-02-03T20:07:28.905Z,29.37
2018-02-03T20:09:55.762Z,27.67
2018-02-03T20:12:22.582Z,28.98
2018-02-03T20:14:49.263Z,27.58
2018-02-03T20:17:15.955Z,28.08
2018-02-03T20:19:43.437Z,27.37
2018-02-03T20:22:10.858Z,26.65
2018-02-03T20:24:37.614Z,30.20
2018-02-03T20:27:05.238Z,30.12
2018-02-03T20:29:31.924Z,28.98
2018-02-03T20:31:59.941Z,30.20
2018-02-03T20:34:26.721Z,30.45
2018-02-03T20:36:53.422Z,25.90
2018-02-03T20:39:20.172Z,28.90
2018-02-03T20:41:46.864Z,31.23
2018-02-03T20:44:14.352Z,31.65
2018-02-03T20:46:41.127Z,32.45
2018-02-03T20:49:08.378Z,32.67
2018-02-03T20:51:35.174Z,33.05
2018-02-03T20:54:02.684Z,37.97
2018-02-03T20:56:29.450Z,37.00
2018-02-03T20:58:56.174Z,35.63
2018-02-03T21:01:22.863Z,38.20
2018-02-03T21:03:49.563Z,38.10
2018-02-03T21:06:16.209Z,41.00
2018-02-03T21:08:49.964Z,39.47
2018-02-03T21:11:17.406Z,37.58
2018-02-03T21:13:44.172Z,36.72
2018-02-03T21:16:11.678Z,39.65
2018-02-03T21:18:38.362Z,35.17
2018-02-03T21:21:05.091Z,38.15
2018-02-03T21:23:31.847Z,36.03
2018-02-03T21:25:58.534Z,38.40
2018-02-03T21:28:25.253Z,41.88
2018-02-03T21:30:52.709Z,40.47
2018-02-03T21:33:20.225Z,38.67
2018-02-03T21:35:47.905Z,34.95
2018-02-03T21:38:14.734Z,35.05
2018-02-03T21:40:41.422Z,35.80
2018-02-03T21:43:08.077Z,40.40
2018-02-03T21:45:35.541Z,37.65
2018-02-03T21:48:02.968Z,40.75
2018-02-03T21:50:29.686Z,38.65
2018-02-03T21:52:56.413Z,40.55
2018-02-03T21:55:23.106Z,44.45
2018-02-03T21:57:49.827Z,48.20
2018-02-03T22:00:16.500Z,45.80
2018-02-03T22:02:43.168Z,44.85
2018-02-03T22:05:10.618Z,43.90
2018-02-03T22:07:37.330Z,40.58
2018-02-03T22:10:04.049Z,41.92
2018-02-03T22:12:30.796Z,44.60
2018-02-03T22:14:57.464Z,42.90
2018-02-03T22:17:24.183Z,44.85
2018-02-03T22:19:50.896Z,46.37
2018-02-03T22:22:17.593Z,42.90
2018-02-03T22:24:44.443Z,44.72
2018-02-03T22:27:11.808Z,42.85
2018-02-03T22:29:38.524Z,45.97
2018-02-03T22:32:06.283Z,44.30
2018-02-03T22:34:32.990Z,48.25
2018-02-03T22:37:00.372Z,46.03
2018-02-03T22:39:27.068Z,46.78
2018-02-03T22:41:53.752Z,51.67
2018-02-03T22:44:20.435Z,55.40
2018-02-03T22:46:47.113Z,55.80
2018-02-03T22:49:14.606Z,51.13
2018-02-03T22:51:41.334Z,49.85
2018-02-03T22:54:08.819Z,49.75
2018-02-03T22:56:35.672Z,50.60
2018-02-03T22:59:02.424Z,44.92
2018-02-03T23:01:29.099Z,44.47
2018-02-03T23:03:55.776Z,51.97
2018-02-03T23:06:22.492Z,46.78
2018-02-03T23:08:49.155Z,47.05
2018-02-03T23:11:16.593Z,47.35
2018-02-03T23:13:43.303Z,46.20
2018-02-03T23:16:09.975Z,45.65
2018-02-03T23:18:38.208Z,44.90
2018-02-03T23:21:04.932Z,43.65
2018-02-03T23:23:31.625Z,50.03
2018-02-03T23:25:58.403Z,41.90
2018-02-03T23:28:25.825Z,39.85
2018-02-03T23:30:54.400Z,41.60
2018-02-03T23:33:21.165Z,40.65
2018-02-03T23:35:48.892Z,37.42
2018-02-03T23:38:15.619Z,40.55
2018-02-03T23:40:43.091Z,36.80
2018-02-03T23:43:09.941Z,43.75
2018-02-03T23:45:36.621Z,41.30
2018-02-03T23:48:03.345Z,45.75
2018-02-03T23:50:30.194Z,44.50
2018-02-03T23:52:56.893Z,48.58
2018-02-03T23:55:25.038Z,48.97
2018-02-03T23:57:52.758Z,44.13
